Philippe A — CNA5228 — position and weather

sailwx.info

Track history (hours):
 
Tides and Currents Weather Stations Pressure Air Temp Water Temp Dewpoint Dewpoint Depression Visibility Wind Speed Wind Dir Waves Ship Positions

Philippe A

Last reported at 2017-Nov-19 00:45 UTC. Time now 2017-Nov-19 01:14 UTC.
Position N 36°10' W 005°10'.

Length 133 m; draft 7.1 m.

Type: Ship (hazmat cat A). MMSI: 242640300.

Date/timePositionNaut miles runAvg speedWind from/ knotsBaromVisibWave heightAir tempDewpointWater temp
2017-Nov-19 00:45N 36°10' W 005°10'1 4.0
2017-Nov-19 00:27N 36°09' W 005°10'5 8.1
2017-Nov-18 23:47N 36°04' W 005°10'3 5.8
2017-Nov-18 23:18N 36°02' W 005°12'310.0
2017-Nov-18 22:59N 36°01' W 005°16'510.8
2017-Nov-18 22:30N 35°59' W 005°21'510.8
2017-Nov-18 22:00N 35°56' W 005°27'  
2017-Nov-12 13:22N 35°57' W 005°36'3 7.3
2017-Nov-12 13:01N 35°59' W 005°33'3 6.8
2017-Nov-12 12:30N 35°60' W 005°29'3 6.6
2017-Nov-12 12:00N 36°01' W 005°25'6 0.7
2017-Nov-12 03:31N 36°08' W 005°25'0 0.1
2017-Nov-12 03:14N 36°08' W 005°25'1 2.4
2017-Nov-12 03:01N 36°08' W 005°25'1 2.3
2017-Nov-12 02:30N 36°08' W 005°24'6 4.2
2017-Nov-12 01:07N 36°02' W 005°23'0 0.8
2017-Nov-12 01:00N 36°02' W 005°23'1 1.1
2017-Nov-12 00:30N 36°03' W 005°23'0 0.7
2017-Nov-12 00:00N 36°02' W 005°23'0 0.5
2017-Nov-11 23:29N 36°03' W 005°23'0 0.3
2017-Nov-11 23:01N 36°03' W 005°23'1 1.7
2017-Nov-11 22:30N 36°03' W 005°22'4 8.1
2017-Nov-11 22:00N 36°03' W 005°17'611.5
2017-Nov-11 21:29N 36°07' W 005°11'812.3
2017-Nov-11 20:52N 36°13' W 005°06'2 1.3
2017-Nov-11 19:29N 36°14' W 005°04'1 0.9
2017-Nov-11 18:11N 36°13' W 005°03'0 1.0
2017-Nov-11 17:47N 36°13' W 005°03'11 2.2
2017-Nov-11 12:53N 36°06' W 005°13'510.1
2017-Nov-11 12:25N 36°05' W 005°19'3 6.0
2017-Nov-11 11:58N 36°03' W 005°22'1 1.4
2017-Nov-11 11:30N 36°03' W 005°22'1 1.1
2017-Nov-11 11:00N 36°03' W 005°23'5 7.0
2017-Nov-11 10:16N 35°58' W 005°25'304 6.5
2017-Nov-09 11:30N 32°12' W 009°29'510.2
2017-Nov-09 11:00N 32°07' W 009°31'710.4
2017-Nov-09 10:17N 32°01' W 009°36'22 9.9
2017-Nov-09 08:05N 31°42' W 009°49'1 9.8
2017-Nov-09 08:00N 31°41' W 009°50'510.0
2017-Nov-09 07:27N 31°36' W 009°52'510.1
2017-Nov-09 07:00N 31°32' W 009°54'5 9.9
2017-Nov-09 06:30N 31°27' W 009°56'5 9.8
2017-Nov-09 05:59N 31°22' W 009°58'3910.4
2017-Nov-09 02:11N 30°43' W 009°59'311.0
2017-Nov-09 01:55N 30°40' W 009°60'  
Track history (hours):
 
Tides and Currents Weather Stations Pressure Air Temp Water Temp Dewpoint Dewpoint Depression Visibility Wind Speed Wind Dir Waves Ship Positions

Philippe A

Last reported at 2017-Nov-19 00:45 UTC. Time now 2017-Nov-19 01:14 UTC.
Position N 36°10' W 005°10'.

Length 133 m; draft 7.1 m.

Type: Ship (hazmat cat A). MMSI: 242640300.

Date/timePositionNaut miles runAvg speedWind from/ knotsBaromVisibWave heightAir tempDewpointWater temp
2017-Nov-19 00:45N 36°10' W 005°10'1 4.0
2017-Nov-19 00:27N 36°09' W 005°10'5 8.1
2017-Nov-18 23:47N 36°04' W 005°10'3 5.8
2017-Nov-18 23:18N 36°02' W 005°12'310.0
2017-Nov-18 22:59N 36°01' W 005°16'510.8
2017-Nov-18 22:30N 35°59' W 005°21'510.8
2017-Nov-18 22:00N 35°56' W 005°27'  
2017-Nov-12 13:22N 35°57' W 005°36'3 7.3
2017-Nov-12 13:01N 35°59' W 005°33'3 6.8
2017-Nov-12 12:30N 35°60' W 005°29'3 6.6
2017-Nov-12 12:00N 36°01' W 005°25'6 0.7
2017-Nov-12 03:31N 36°08' W 005°25'0 0.1
2017-Nov-12 03:14N 36°08' W 005°25'1 2.4
2017-Nov-12 03:01N 36°08' W 005°25'1 2.3
2017-Nov-12 02:30N 36°08' W 005°24'6 4.2
2017-Nov-12 01:07N 36°02' W 005°23'0 0.8
2017-Nov-12 01:00N 36°02' W 005°23'1 1.1
2017-Nov-12 00:30N 36°03' W 005°23'0 0.7
2017-Nov-12 00:00N 36°02' W 005°23'0 0.5
2017-Nov-11 23:29N 36°03' W 005°23'0 0.3
2017-Nov-11 23:01N 36°03' W 005°23'1 1.7
2017-Nov-11 22:30N 36°03' W 005°22'4 8.1
2017-Nov-11 22:00N 36°03' W 005°17'611.5
2017-Nov-11 21:29N 36°07' W 005°11'812.3
2017-Nov-11 20:52N 36°13' W 005°06'2 1.3
2017-Nov-11 19:29N 36°14' W 005°04'1 0.9
2017-Nov-11 18:11N 36°13' W 005°03'0 1.0
2017-Nov-11 17:47N 36°13' W 005°03'11 2.2
2017-Nov-11 12:53N 36°06' W 005°13'510.1
2017-Nov-11 12:25N 36°05' W 005°19'3 6.0
2017-Nov-11 11:58N 36°03' W 005°22'1 1.4
2017-Nov-11 11:30N 36°03' W 005°22'1 1.1
2017-Nov-11 11:00N 36°03' W 005°23'5 7.0
2017-Nov-11 10:16N 35°58' W 005°25'304 6.5
2017-Nov-09 11:30N 32°12' W 009°29'510.2
2017-Nov-09 11:00N 32°07' W 009°31'710.4
2017-Nov-09 10:17N 32°01' W 009°36'22 9.9
2017-Nov-09 08:05N 31°42' W 009°49'1 9.8
2017-Nov-09 08:00N 31°41' W 009°50'510.0
2017-Nov-09 07:27N 31°36' W 009°52'510.1
2017-Nov-09 07:00N 31°32' W 009°54'5 9.9
2017-Nov-09 06:30N 31°27' W 009°56'5 9.8
2017-Nov-09 05:59N 31°22' W 009°58'3910.4
2017-Nov-09 02:11N 30°43' W 009°59'311.0
2017-Nov-09 01:55N 30°40' W 009°60'  

Dump ship's entire track history